sensor_id;sensor_type;location;lat;lon;timestamp;temperature;humidity
53208;DHT22;39093;52.788;6.940;2022-12-29T00:02:12;10.10;99.90
53208;DHT22;39093;52.788;6.940;2022-12-29T00:04:39;10.20;99.90
53208;DHT22;39093;52.788;6.940;2022-12-29T00:07:09;10.10;99.90
53208;DHT22;39093;52.788;6.940;2022-12-29T00:09:36;10.20;99.90
53208;DHT22;39093;52.788;6.940;2022-12-29T00:12:04;10.20;99.90
53208;DHT22;39093;52.788;6.940;2022-12-29T00:14:31;10.20;99.90
53208;DHT22;39093;52.788;6.940;2022-12-29T00:17:17;10.20;99.90
53208;DHT22;39093;52.788;6.940;2022-12-29T00:19:50;10.00;99.90
53208;DHT22;39093;52.788;6.940;2022-12-29T00:22:35;10.50;99.90
53208;DHT22;39093;52.788;6.940;2022-12-29T00:25:21;10.30;99.90
53208;DHT22;39093;52.788;6.940;2022-12-29T00:28:08;10.40;99.90
53208;DHT22;39093;52.788;6.940;2022-12-29T00:30:53;10.40;99.90
53208;DHT22;39093;52.788;6.940;2022-12-29T00:33:43;10.40;99.90
53208;DHT22;39093;52.788;6.940;2022-12-29T00:36:39;10.40;99.90
53208;DHT22;39093;52.788;6.940;2022-12-29T00:39:12;10.30;99.90
53208;DHT22;39093;52.788;6.940;2022-12-29T00:42:07;10.40;99.90
53208;DHT22;39093;52.788;6.940;2022-12-29T00:44:53;10.30;99.90
53208;DHT22;39093;52.788;6.940;2022-12-29T00:47:20;10.30;99.90
53208;DHT22;39093;52.788;6.940;2022-12-29T00:49:47;10.30;99.90
53208;DHT22;39093;52.788;6.940;2022-12-29T00:52:14;10.30;99.90
53208;DHT22;39093;52.788;6.940;2022-12-29T00:54:41;10.40;99.90
53208;DHT22;39093;52.788;6.940;2022-12-29T00:57:11;10.30;99.90
53208;DHT22;39093;52.788;6.940;2022-12-29T00:59:40;10.40;99.90
53208;DHT22;39093;52.788;6.940;2022-12-29T01:02:09;10.40;99.90
53208;DHT22;39093;52.788;6.940;2022-12-29T01:04:36;10.30;99.90
53208;DHT22;39093;52.788;6.940;2022-12-29T01:07:04;10.30;99.90
53208;DHT22;39093;52.788;6.940;2022-12-29T01:09:32;10.30;99.90
53208;DHT22;39093;52.788;6.940;2022-12-29T01:12:18;10.40;99.90
53208;DHT22;39093;52.788;6.940;2022-12-29T01:15:06;10.60;99.90
53208;DHT22;39093;52.788;6.940;2022-12-29T01:17:33;10.50;99.90
53208;DHT22;39093;52.788;6.940;2022-12-29T01:20:00;10.50;99.90
53208;DHT22;39093;52.788;6.940;2022-12-29T01:22:27;10.60;99.90
53208;DHT22;39093;52.788;6.940;2022-12-29T01:24:56;10.60;99.90
53208;DHT22;39093;52.788;6.940;2022-12-29T01:27:31;10.60;99.90
53208;DHT22;39093;52.788;6.940;2022-12-29T01:29:58;10.60;99.90
53208;DHT22;39093;52.788;6.940;2022-12-29T01:32:25;10.60;99.90
53208;DHT22;39093;52.788;6.940;2022-12-29T01:34:51;10.60;99.90
53208;DHT22;39093;52.788;6.940;2022-12-29T01:37:18;10.70;99.90
53208;DHT22;39093;52.788;6.940;2022-12-29T01:39:45;10.70;99.90
53208;DHT22;39093;52.788;6.940;2022-12-29T01:42:17;10.70;99.90
53208;DHT22;39093;52.788;6.940;2022-12-29T01:44:56;10.70;99.90
53208;DHT22;39093;52.788;6.940;2022-12-29T01:47:38;10.80;99.90
53208;DHT22;39093;52.788;6.940;2022-12-29T01:50:20;10.80;99.90
53208;DHT22;39093;52.788;6.940;2022-12-29T01:53:08;10.70;99.90
53208;DHT22;39093;52.788;6.940;2022-12-29T01:55:40;10.70;99.90
53208;DHT22;39093;52.788;6.940;2022-12-29T01:58:10;10.80;99.90
53208;DHT22;39093;52.788;6.940;2022-12-29T02:00:38;10.70;99.90
53208;DHT22;39093;52.788;6.940;2022-12-29T02:03:06;10.70;99.90
53208;DHT22;39093;52.788;6.940;2022-12-29T02:06:05;10.80;99.90
53208;DHT22;39093;52.788;6.940;2022-12-29T02:08:33;10.80;99.90
53208;DHT22;39093;52.788;6.940;2022-12-29T02:11:00;10.80;99.90
53208;DHT22;39093;52.788;6.940;2022-12-29T02:13:28;10.80;99.90
53208;DHT22;39093;52.788;6.940;2022-12-29T02:21:30;10.70;99.90
53208;DHT22;39093;52.788;6.940;2022-12-29T02:41:03;10.70;99.90
53208;DHT22;39093;52.788;6.940;2022-12-29T02:49:01;10.60;99.90
53208;DHT22;39093;52.788;6.940;2022-12-29T02:51:59;10.50;99.90
53208;DHT22;39093;52.788;6.940;2022-12-29T02:54:40;10.40;99.90
53208;DHT22;39093;52.788;6.940;2022-12-29T03:08:17;10.20;99.90
53208;DHT22;39093;52.788;6.940;2022-12-29T03:11:04;10.10;99.90
53208;DHT22;39093;52.788;6.940;2022-12-29T03:16:45;10.20;99.90
53208;DHT22;39093;52.788;6.940;2022-12-29T03:19:28;10.10;99.90
53208;DHT22;39093;52.788;6.940;2022-12-29T03:22:06;10.00;99.90
53208;DHT22;39093;52.788;6.940;2022-12-29T03:25:08;10.00;99.90
53208;DHT22;39093;52.788;6.940;2022-12-29T03:27:44;10.00;99.90
53208;DHT22;39093;52.788;6.940;2022-12-29T03:30:12;10.00;99.90
53208;DHT22;39093;52.788;6.940;2022-12-29T03:32:46;10.10;99.90
53208;DHT22;39093;52.788;6.940;2022-12-29T03:35:16;10.00;99.90
53208;DHT22;39093;52.788;6.940;2022-12-29T03:40:38;10.10;99.90
53208;DHT22;39093;52.788;6.940;2022-12-29T03:43:07;10.20;99.90
53208;DHT22;39093;52.788;6.940;2022-12-29T03:45:34;10.20;99.90
53208;DHT22;39093;52.788;6.940;2022-12-29T03:48:01;10.20;99.90
53208;DHT22;39093;52.788;6.940;2022-12-29T03:50:28;10.20;99.90
53208;DHT22;39093;52.788;6.940;2022-12-29T03:52:55;10.20;99.90
53208;DHT22;39093;52.788;6.940;2022-12-29T03:55:22;10.10;99.90
53208;DHT22;39093;52.788;6.940;2022-12-29T03:57:49;10.20;99.90
53208;DHT22;39093;52.788;6.940;2022-12-29T04:00:16;10.20;99.90
53208;DHT22;39093;52.788;6.940;2022-12-29T04:02:43;10.20;99.90
53208;DHT22;39093;52.788;6.940;2022-12-29T04:05:11;10.20;99.90
53208;DHT22;39093;52.788;6.940;2022-12-29T04:07:38;10.20;99.90
53208;DHT22;39093;52.788;6.940;2022-12-29T04:10:05;10.20;99.90
53208;DHT22;39093;52.788;6.940;2022-12-29T04:12:32;10.20;99.90
53208;DHT22;39093;52.788;6.940;2022-12-29T04:14:59;10.20;99.90
53208;DHT22;39093;52.788;6.940;2022-12-29T04:17:26;10.30;99.90
53208;DHT22;39093;52.788;6.940;2022-12-29T04:19:53;10.30;99.90
53208;DHT22;39093;52.788;6.940;2022-12-29T04:22:40;10.30;99.90
53208;DHT22;39093;52.788;6.940;2022-12-29T04:25:07;10.30;99.90
53208;DHT22;39093;52.788;6.940;2022-12-29T04:27:34;10.30;99.90
53208;DHT22;39093;52.788;6.940;2022-12-29T04:30:01;10.30;99.90
53208;DHT22;39093;52.788;6.940;2022-12-29T04:32:28;10.30;99.90
53208;DHT22;39093;52.788;6.940;2022-12-29T04:34:55;10.30;99.90
53208;DHT22;39093;52.788;6.940;2022-12-29T04:37:21;10.30;99.90
53208;DHT22;39093;52.788;6.940;2022-12-29T04:39:48;10.50;99.90
53208;DHT22;39093;52.788;6.940;2022-12-29T04:42:15;10.50;99.90
53208;DHT22;39093;52.788;6.940;2022-12-29T04:44:43;10.50;99.90
53208;DHT22;39093;52.788;6.940;2022-12-29T04:47:11;10.50;99.90
53208;DHT22;39093;52.788;6.940;2022-12-29T04:49:38;10.40;99.90
53208;DHT22;39093;52.788;6.940;2022-12-29T04:52:04;10.40;99.90
53208;DHT22;39093;52.788;6.940;2022-12-29T04:54:31;10.50;99.90
53208;DHT22;39093;52.788;6.940;2022-12-29T04:56:58;10.50;99.90
53208;DHT22;39093;52.788;6.940;2022-12-29T04:59:25;10.50;99.90
53208;DHT22;39093;52.788;6.940;2022-12-29T05:01:52;10.40;99.90
53208;DHT22;39093;52.788;6.940;2022-12-29T05:04:19;10.30;99.90
53208;DHT22;39093;52.788;6.940;2022-12-29T05:06:46;10.30;99.90
53208;DHT22;39093;52.788;6.940;2022-12-29T05:09:12;10.30;99.90
53208;DHT22;39093;52.788;6.940;2022-12-29T05:11:39;10.30;99.90
53208;DHT22;39093;52.788;6.940;2022-12-29T05:14:06;10.30;99.90
53208;DHT22;39093;52.788;6.940;2022-12-29T05:16:33;10.30;99.90
53208;DHT22;39093;52.788;6.940;2022-12-29T05:19:00;10.30;99.90
53208;DHT22;39093;52.788;6.940;2022-12-29T05:21:27;10.30;99.90
53208;DHT22;39093;52.788;6.940;2022-12-29T05:23:54;10.30;99.90
53208;DHT22;39093;52.788;6.940;2022-12-29T05:26:21;10.30;99.90
53208;DHT22;39093;52.788;6.940;2022-12-29T05:28:48;10.40;99.90
53208;DHT22;39093;52.788;6.940;2022-12-29T05:31:15;10.40;99.90
53208;DHT22;39093;52.788;6.940;2022-12-29T05:33:42;10.40;99.90
53208;DHT22;39093;52.788;6.940;2022-12-29T05:36:10;10.40;99.90
53208;DHT22;39093;52.788;6.940;2022-12-29T05:38:36;10.30;99.90
53208;DHT22;39093;52.788;6.940;2022-12-29T05:41:03;10.40;99.90
53208;DHT22;39093;52.788;6.940;2022-12-29T05:43:30;10.40;99.90
53208;DHT22;39093;52.788;6.940;2022-12-29T05:45:57;10.30;99.90
53208;DHT22;39093;52.788;6.940;2022-12-29T05:48:24;10.30;99.90
53208;DHT22;39093;52.788;6.940;2022-12-29T05:50:51;10.20;99.90
53208;DHT22;39093;52.788;6.940;2022-12-29T05:53:19;10.30;99.90
53208;DHT22;39093;52.788;6.940;2022-12-29T05:55:49;10.20;99.90
53208;DHT22;39093;52.788;6.940;2022-12-29T05:58:16;10.30;99.90
53208;DHT22;39093;52.788;6.940;2022-12-29T06:00:43;10.20;99.90
53208;DHT22;39093;52.788;6.940;2022-12-29T06:03:10;10.30;99.90
53208;DHT22;39093;52.788;6.940;2022-12-29T06:05:38;10.30;99.90
53208;DHT22;39093;52.788;6.940;2022-12-29T06:08:05;10.20;99.90
53208;DHT22;39093;52.788;6.940;2022-12-29T06:10:31;10.20;99.90
53208;DHT22;39093;52.788;6.940;2022-12-29T06:12:58;10.20;99.90
53208;DHT22;39093;52.788;6.940;2022-12-29T06:15:25;10.20;99.90
53208;DHT22;39093;52.788;6.940;2022-12-29T06:17:52;10.40;99.90
53208;DHT22;39093;52.788;6.940;2022-12-29T06:20:19;10.40;99.90
53208;DHT22;39093;52.788;6.940;2022-12-29T06:22:46;10.30;99.90
53208;DHT22;39093;52.788;6.940;2022-12-29T06:25:13;10.30;99.90
53208;DHT22;39093;52.788;6.940;2022-12-29T06:27:40;10.20;99.90
53208;DHT22;39093;52.788;6.940;2022-12-29T06:30:07;10.10;99.90
53208;DHT22;39093;52.788;6.940;2022-12-29T06:32:36;10.00;99.90
53208;DHT22;39093;52.788;6.940;2022-12-29T06:35:04;10.10;99.90
53208;DHT22;39093;52.788;6.940;2022-12-29T06:37:32;10.10;99.90
53208;DHT22;39093;52.788;6.940;2022-12-29T06:39:59;10.10;99.90
53208;DHT22;39093;52.788;6.940;2022-12-29T06:42:26;10.10;99.90
53208;DHT22;39093;52.788;6.940;2022-12-29T06:44:53;10.10;99.90
53208;DHT22;39093;52.788;6.940;2022-12-29T06:47:20;10.10;99.90
53208;DHT22;39093;52.788;6.940;2022-12-29T06:49:46;10.10;99.90
53208;DHT22;39093;52.788;6.940;2022-12-29T06:52:13;10.10;99.90
53208;DHT22;39093;52.788;6.940;2022-12-29T06:54:40;10.20;99.90
53208;DHT22;39093;52.788;6.940;2022-12-29T06:57:07;10.10;99.90
53208;DHT22;39093;52.788;6.940;2022-12-29T06:59:34;10.20;99.90
53208;DHT22;39093;52.788;6.940;2022-12-29T07:02:01;10.10;99.90
53208;DHT22;39093;52.788;6.940;2022-12-29T07:04:29;10.10;99.90
53208;DHT22;39093;52.788;6.940;2022-12-29T07:06:56;10.10;99.90
53208;DHT22;39093;52.788;6.940;2022-12-29T07:09:22;10.10;99.90
53208;DHT22;39093;52.788;6.940;2022-12-29T07:11:49;10.00;99.90
53208;DHT22;39093;52.788;6.940;2022-12-29T07:14:16;10.00;99.90
53208;DHT22;39093;52.788;6.940;2022-12-29T07:16:43;10.00;99.90
53208;DHT22;39093;52.788;6.940;2022-12-29T07:19:10;10.00;99.90
53208;DHT22;39093;52.788;6.940;2022-12-29T07:21:37;10.00;99.90
53208;DHT22;39093;52.788;6.940;2022-12-29T07:24:04;10.00;99.90
53208;DHT22;39093;52.788;6.940;2022-12-29T07:26:31;10.00;99.90
53208;DHT22;39093;52.788;6.940;2022-12-29T07:29:03;10.00;99.90
53208;DHT22;39093;52.788;6.940;2022-12-29T07:31:30;9.80;99.90
53208;DHT22;39093;52.788;6.940;2022-12-29T07:33:57;9.90;99.90
53208;DHT22;39093;52.788;6.940;2022-12-29T07:36:25;9.80;99.90
53208;DHT22;39093;52.788;6.940;2022-12-29T07:38:59;9.90;99.90
53208;DHT22;39093;52.788;6.940;2022-12-29T07:41:27;9.90;99.90
53208;DHT22;39093;52.788;6.940;2022-12-29T07:43:55;9.90;99.90
53208;DHT22;39093;52.788;6.940;2022-12-29T07:46:21;9.80;99.90
53208;DHT22;39093;52.788;6.940;2022-12-29T07:49:08;9.90;99.90
53208;DHT22;39093;52.788;6.940;2022-12-29T07:51:35;9.80;99.90
53208;DHT22;39093;52.788;6.940;2022-12-29T07:54:02;9.90;99.90
53208;DHT22;39093;52.788;6.940;2022-12-29T07:56:29;9.90;99.90
53208;DHT22;39093;52.788;6.940;2022-12-29T07:58:56;9.90;99.90
53208;DHT22;39093;52.788;6.940;2022-12-29T08:01:23;9.90;99.90
53208;DHT22;39093;52.788;6.940;2022-12-29T08:03:50;9.90;99.90
53208;DHT22;39093;52.788;6.940;2022-12-29T08:06:22;9.90;99.90
53208;DHT22;39093;52.788;6.940;2022-12-29T08:08:50;9.90;99.90
53208;DHT22;39093;52.788;6.940;2022-12-29T08:11:16;9.90;99.90
53208;DHT22;39093;52.788;6.940;2022-12-29T08:13:43;9.90;99.90
53208;DHT22;39093;52.788;6.940;2022-12-29T08:16:13;9.80;99.90
53208;DHT22;39093;52.788;6.940;2022-12-29T08:18:44;9.80;99.90
53208;DHT22;39093;52.788;6.940;2022-12-29T08:21:11;9.90;99.90
53208;DHT22;39093;52.788;6.940;2022-12-29T08:23:38;9.80;99.90
53208;DHT22;39093;52.788;6.940;2022-12-29T08:26:05;9.80;99.90
53208;DHT22;39093;52.788;6.940;2022-12-29T08:28:33;9.80;99.90
53208;DHT22;39093;52.788;6.940;2022-12-29T08:31:01;9.80;99.90
53208;DHT22;39093;52.788;6.940;2022-12-29T08:33:29;9.90;99.90
53208;DHT22;39093;52.788;6.940;2022-12-29T08:36:03;9.90;99.90
53208;DHT22;39093;52.788;6.940;2022-12-29T08:38:30;9.80;99.90
53208;DHT22;39093;52.788;6.940;2022-12-29T08:40:58;9.90;99.90
53208;DHT22;39093;52.788;6.940;2022-12-29T08:43:27;9.80;99.90
53208;DHT22;39093;52.788;6.940;2022-12-29T08:45:54;9.80;99.90
53208;DHT22;39093;52.788;6.940;2022-12-29T08:48:21;9.90;99.90
53208;DHT22;39093;52.788;6.940;2022-12-29T08:50:49;9.80;99.90
53208;DHT22;39093;52.788;6.940;2022-12-29T08:53:17;9.90;99.90
53208;DHT22;39093;52.788;6.940;2022-12-29T08:55:45;9.90;99.90
53208;DHT22;39093;52.788;6.940;2022-12-29T08:58:13;9.80;99.90
53208;DHT22;39093;52.788;6.940;2022-12-29T09:00:42;9.80;99.90
53208;DHT22;39093;52.788;6.940;2022-12-29T09:03:08;9.70;99.90
53208;DHT22;39093;52.788;6.940;2022-12-29T09:05:36;9.80;99.90
53208;DHT22;39093;52.788;6.940;2022-12-29T09:08:03;9.80;99.90
53208;DHT22;39093;52.788;6.940;2022-12-29T09:10:31;9.80;99.90
53208;DHT22;39093;52.788;6.940;2022-12-29T09:12:58;9.80;99.90
53208;DHT22;39093;52.788;6.940;2022-12-29T09:15:25;9.90;99.90
53208;DHT22;39093;52.788;6.940;2022-12-29T09:17:52;9.90;99.90
53208;DHT22;39093;52.788;6.940;2022-12-29T09:20:19;9.80;99.90
53208;DHT22;39093;52.788;6.940;2022-12-29T09:22:46;9.90;99.90
53208;DHT22;39093;52.788;6.940;2022-12-29T09:25:14;9.90;99.90
53208;DHT22;39093;52.788;6.940;2022-12-29T09:27:41;9.90;99.90
53208;DHT22;39093;52.788;6.940;2022-12-29T09:30:11;9.80;99.90
53208;DHT22;39093;52.788;6.940;2022-12-29T09:32:38;9.80;99.90
53208;DHT22;39093;52.788;6.940;2022-12-29T09:35:12;9.70;99.90
53208;DHT22;39093;52.788;6.940;2022-12-29T09:37:39;9.60;99.90
53208;DHT22;39093;52.788;6.940;2022-12-29T09:40:09;9.50;99.90
53208;DHT22;39093;52.788;6.940;2022-12-29T09:43:07;9.30;99.90
53208;DHT22;39093;52.788;6.940;2022-12-29T09:45:40;9.30;99.90
53208;DHT22;39093;52.788;6.940;2022-12-29T09:48:20;9.30;99.90
53208;DHT22;39093;52.788;6.940;2022-12-29T09:50:55;9.40;99.90
53208;DHT22;39093;52.788;6.940;2022-12-29T09:53:35;9.30;99.90
53208;DHT22;39093;52.788;6.940;2022-12-29T09:56:05;9.30;99.90
53208;DHT22;39093;52.788;6.940;2022-12-29T09:58:51;9.40;99.90
53208;DHT22;39093;52.788;6.940;2022-12-29T10:04:15;9.50;99.90
53208;DHT22;39093;52.788;6.940;2022-12-29T10:18:16;9.60;99.90
53208;DHT22;39093;52.788;6.940;2022-12-29T10:23:44;9.90;99.90
53208;DHT22;39093;52.788;6.940;2022-12-29T10:26:21;9.90;99.90
53208;DHT22;39093;52.788;6.940;2022-12-29T10:29:05;9.90;99.90
53208;DHT22;39093;52.788;6.940;2022-12-29T10:31:41;10.00;99.90
53208;DHT22;39093;52.788;6.940;2022-12-29T10:40:02;9.90;99.90
53208;DHT22;39093;52.788;6.940;2022-12-29T10:42:50;9.90;99.90
53208;DHT22;39093;52.788;6.940;2022-12-29T10:45:21;9.90;99.90
53208;DHT22;39093;52.788;6.940;2022-12-29T10:48:12;9.90;99.90
53208;DHT22;39093;52.788;6.940;2022-12-29T10:50:42;9.90;99.90
53208;DHT22;39093;52.788;6.940;2022-12-29T10:53:18;9.90;99.90
53208;DHT22;39093;52.788;6.940;2022-12-29T10:55:46;9.80;99.90
53208;DHT22;39093;52.788;6.940;2022-12-29T10:58:14;9.60;99.90
53208;DHT22;39093;52.788;6.940;2022-12-29T11:00:43;9.60;99.90
53208;DHT22;39093;52.788;6.940;2022-12-29T11:06:03;9.70;99.90
53208;DHT22;39093;52.788;6.940;2022-12-29T11:08:45;9.60;99.90
53208;DHT22;39093;52.788;6.940;2022-12-29T11:11:23;9.70;99.90
53208;DHT22;39093;52.788;6.940;2022-12-29T11:14:02;9.70;99.90
53208;DHT22;39093;52.788;6.940;2022-12-29T11:16:34;9.60;99.90
53208;DHT22;39093;52.788;6.940;2022-12-29T11:19:02;9.60;99.90
53208;DHT22;39093;52.788;6.940;2022-12-29T11:21:37;9.60;99.90
53208;DHT22;39093;52.788;6.940;2022-12-29T11:24:43;9.60;99.90
53208;DHT22;39093;52.788;6.940;2022-12-29T11:27:24;9.50;99.90
53208;DHT22;39093;52.788;6.940;2022-12-29T11:29:54;9.50;99.90
53208;DHT22;39093;52.788;6.940;2022-12-29T11:32:23;9.60;99.90
53208;DHT22;39093;52.788;6.940;2022-12-29T11:34:56;9.50;99.90
53208;DHT22;39093;52.788;6.940;2022-12-29T11:37:38;9.50;99.90
53208;DHT22;39093;52.788;6.940;2022-12-29T11:40:19;9.50;99.90
53208;DHT22;39093;52.788;6.940;2022-12-29T11:42:55;9.40;99.90
53208;DHT22;39093;52.788;6.940;2022-12-29T11:45:36;9.40;99.90
53208;DHT22;39093;52.788;6.940;2022-12-29T11:48:13;9.50;99.90
53208;DHT22;39093;52.788;6.940;2022-12-29T11:50:53;9.40;99.90
53208;DHT22;39093;52.788;6.940;2022-12-29T11:53:24;9.40;99.90
53208;DHT22;39093;52.788;6.940;2022-12-29T11:56:00;9.40;99.90
53208;DHT22;39093;52.788;6.940;2022-12-29T11:58:38;9.50;99.90
53208;DHT22;39093;52.788;6.940;2022-12-29T12:04:07;9.30;99.90
53208;DHT22;39093;52.788;6.940;2022-12-29T12:06:43;9.40;99.90
53208;DHT22;39093;52.788;6.940;2022-12-29T12:09:32;9.40;99.90
53208;DHT22;39093;52.788;6.940;2022-12-29T12:12:01;9.40;99.90
53208;DHT22;39093;52.788;6.940;2022-12-29T12:14:38;9.50;99.90
53208;DHT22;39093;52.788;6.940;2022-12-29T12:17:14;9.60;99.90
53208;DHT22;39093;52.788;6.940;2022-12-29T12:19:56;9.70;99.90
53208;DHT22;39093;52.788;6.940;2022-12-29T12:22:35;9.70;99.90
53208;DHT22;39093;52.788;6.940;2022-12-29T12:25:19;9.80;99.90
53208;DHT22;39093;52.788;6.940;2022-12-29T12:28:09;9.90;99.90
53208;DHT22;39093;52.788;6.940;2022-12-29T12:30:43;10.00;99.90
53208;DHT22;39093;52.788;6.940;2022-12-29T12:33:22;10.10;99.90
53208;DHT22;39093;52.788;6.940;2022-12-29T12:39:06;10.10;99.90
53208;DHT22;39093;52.788;6.940;2022-12-29T12:47:23;10.00;99.90
53208;DHT22;39093;52.788;6.940;2022-12-29T12:50:18;9.80;99.90
53208;DHT22;39093;52.788;6.940;2022-12-29T13:08:01;9.10;99.90
53208;DHT22;39093;52.788;6.940;2022-12-29T13:13:51;9.00;99.90
53208;DHT22;39093;52.788;6.940;2022-12-29T13:16:32;9.10;99.90
53208;DHT22;39093;52.788;6.940;2022-12-29T13:22:14;9.10;99.90
53208;DHT22;39093;52.788;6.940;2022-12-29T13:30:17;9.20;99.90
53208;DHT22;39093;52.788;6.940;2022-12-29T13:33:21;9.30;99.90
53208;DHT22;39093;52.788;6.940;2022-12-29T13:36:02;9.40;99.90
53208;DHT22;39093;52.788;6.940;2022-12-29T13:38:40;9.40;99.90
53208;DHT22;39093;52.788;6.940;2022-12-29T13:41:35;9.40;99.90
53208;DHT22;39093;52.788;6.940;2022-12-29T13:44:01;9.30;99.90
53208;DHT22;39093;52.788;6.940;2022-12-29T13:46:38;9.30;99.90
53208;DHT22;39093;52.788;6.940;2022-12-29T13:49:21;9.30;99.90
53208;DHT22;39093;52.788;6.940;2022-12-29T13:51:56;9.30;99.90
53208;DHT22;39093;52.788;6.940;2022-12-29T14:00:19;9.30;99.90
53208;DHT22;39093;52.788;6.940;2022-12-29T14:02:55;9.20;99.90
53208;DHT22;39093;52.788;6.940;2022-12-29T14:05:30;9.20;99.90
53208;DHT22;39093;52.788;6.940;2022-12-29T14:08:18;9.20;99.90
53208;DHT22;39093;52.788;6.940;2022-12-29T14:10:48;9.20;99.90
53208;DHT22;39093;52.788;6.940;2022-12-29T14:13:20;9.10;99.90
53208;DHT22;39093;52.788;6.940;2022-12-29T14:15:56;9.20;99.90
53208;DHT22;39093;52.788;6.940;2022-12-29T14:18:28;9.10;99.90
53208;DHT22;39093;52.788;6.940;2022-12-29T14:20:59;9.10;99.90
53208;DHT22;39093;52.788;6.940;2022-12-29T14:23:41;9.10;99.90
53208;DHT22;39093;52.788;6.940;2022-12-29T14:34:56;9.00;99.90
53208;DHT22;39093;52.788;6.940;2022-12-29T14:42:52;9.00;99.90
53208;DHT22;39093;52.788;6.940;2022-12-29T14:47:48;9.10;99.90
53208;DHT22;39093;52.788;6.940;2022-12-29T14:53:09;9.10;99.90
53208;DHT22;39093;52.788;6.940;2022-12-29T14:55:57;9.10;99.90
53208;DHT22;39093;52.788;6.940;2022-12-29T14:58:28;9.20;99.90
53208;DHT22;39093;52.788;6.940;2022-12-29T15:00:57;9.10;99.90
53208;DHT22;39093;52.788;6.940;2022-12-29T15:03:43;9.00;99.90
53208;DHT22;39093;52.788;6.940;2022-12-29T15:06:13;9.10;99.90
53208;DHT22;39093;52.788;6.940;2022-12-29T15:08:50;9.00;99.90
53208;DHT22;39093;52.788;6.940;2022-12-29T15:14:03;9.00;99.90
53208;DHT22;39093;52.788;6.940;2022-12-29T15:16:34;9.10;99.90
53208;DHT22;39093;52.788;6.940;2022-12-29T15:19:24;9.00;99.90
53208;DHT22;39093;52.788;6.940;2022-12-29T15:21:52;9.00;99.90
53208;DHT22;39093;52.788;6.940;2022-12-29T15:24:20;9.10;99.90
53208;DHT22;39093;52.788;6.940;2022-12-29T15:26:50;9.10;99.90
53208;DHT22;39093;52.788;6.940;2022-12-29T15:32:16;9.10;99.90
53208;DHT22;39093;52.788;6.940;2022-12-29T15:34:46;9.10;99.90
53208;DHT22;39093;52.788;6.940;2022-12-29T15:37:28;9.10;99.90
53208;DHT22;39093;52.788;6.940;2022-12-29T15:39:55;9.10;99.90
53208;DHT22;39093;52.788;6.940;2022-12-29T15:45:12;9.10;99.90
53208;DHT22;39093;52.788;6.940;2022-12-29T15:47:42;9.10;99.90
53208;DHT22;39093;52.788;6.940;2022-12-29T15:50:27;9.00;99.90
53208;DHT22;39093;52.788;6.940;2022-12-29T15:53:12;9.10;99.90
53208;DHT22;39093;52.788;6.940;2022-12-29T15:55:41;9.10;99.90
53208;DHT22;39093;52.788;6.940;2022-12-29T15:58:21;9.00;99.90
53208;DHT22;39093;52.788;6.940;2022-12-29T16:00:54;9.10;99.90
53208;DHT22;39093;52.788;6.940;2022-12-29T16:03:26;9.00;99.90
53208;DHT22;39093;52.788;6.940;2022-12-29T16:08:41;9.00;99.90
53208;DHT22;39093;52.788;6.940;2022-12-29T16:11:37;9.00;99.90
53208;DHT22;39093;52.788;6.940;2022-12-29T16:14:14;9.00;99.90
53208;DHT22;39093;52.788;6.940;2022-12-29T16:16:44;9.00;99.90
53208;DHT22;39093;52.788;6.940;2022-12-29T16:19:27;9.00;99.90
53208;DHT22;39093;52.788;6.940;2022-12-29T16:22:00;8.90;99.90
53208;DHT22;39093;52.788;6.940;2022-12-29T16:24:31;8.80;99.90
53208;DHT22;39093;52.788;6.940;2022-12-29T16:27:09;8.80;99.90
53208;DHT22;39093;52.788;6.940;2022-12-29T16:29:40;8.70;99.90
53208;DHT22;39093;52.788;6.940;2022-12-29T16:32:28;8.70;99.90
53208;DHT22;39093;52.788;6.940;2022-12-29T16:35:13;8.70;99.90
53208;DHT22;39093;52.788;6.940;2022-12-29T16:37:42;8.70;99.90
53208;DHT22;39093;52.788;6.940;2022-12-29T16:40:27;8.70;99.90
53208;DHT22;39093;52.788;6.940;2022-12-29T16:43:03;8.70;99.90
53208;DHT22;39093;52.788;6.940;2022-12-29T16:48:32;8.60;99.90
53208;DHT22;39093;52.788;6.940;2022-12-29T16:51:22;8.60;99.90
53208;DHT22;39093;52.788;6.940;2022-12-29T16:53:52;8.70;99.90
53208;DHT22;39093;52.788;6.940;2022-12-29T16:56:34;8.80;99.90
53208;DHT22;39093;52.788;6.940;2022-12-29T17:01:52;8.60;99.90
53208;DHT22;39093;52.788;6.940;2022-12-29T17:04:20;8.50;99.90
53208;DHT22;39093;52.788;6.940;2022-12-29T17:06:47;8.60;99.90
53208;DHT22;39093;52.788;6.940;2022-12-29T17:09:25;8.70;99.90
53208;DHT22;39093;52.788;6.940;2022-12-29T17:11:55;8.70;99.90
53208;DHT22;39093;52.788;6.940;2022-12-29T17:14:43;8.70;99.90
53208;DHT22;39093;52.788;6.940;2022-12-29T17:17:35;8.60;99.90
53208;DHT22;39093;52.788;6.940;2022-12-29T17:20:18;8.60;99.90
53208;DHT22;39093;52.788;6.940;2022-12-29T17:22:47;8.60;99.90
53208;DHT22;39093;52.788;6.940;2022-12-29T17:25:17;8.60;99.90
53208;DHT22;39093;52.788;6.940;2022-12-29T17:27:51;8.60;99.90
53208;DHT22;39093;52.788;6.940;2022-12-29T17:30:21;8.50;99.90
53208;DHT22;39093;52.788;6.940;2022-12-29T17:33:03;8.50;99.90
53208;DHT22;39093;52.788;6.940;2022-12-29T17:35:31;8.60;99.90
53208;DHT22;39093;52.788;6.940;2022-12-29T17:37:59;8.50;99.90
53208;DHT22;39093;52.788;6.940;2022-12-29T17:40:28;8.60;99.90
53208;DHT22;39093;52.788;6.940;2022-12-29T17:43:00;8.60;99.90
53208;DHT22;39093;52.788;6.940;2022-12-29T17:45:34;8.50;99.90
53208;DHT22;39093;52.788;6.940;2022-12-29T17:48:01;8.70;99.90
53208;DHT22;39093;52.788;6.940;2022-12-29T17:50:29;8.60;99.90
53208;DHT22;39093;52.788;6.940;2022-12-29T17:52:59;8.60;99.90
53208;DHT22;39093;52.788;6.940;2022-12-29T17:55:29;8.60;99.90
53208;DHT22;39093;52.788;6.940;2022-12-29T17:58:26;8.60;99.90
53208;DHT22;39093;52.788;6.940;2022-12-29T18:00:57;8.60;99.90
53208;DHT22;39093;52.788;6.940;2022-12-29T18:03:35;8.60;99.90
53208;DHT22;39093;52.788;6.940;2022-12-29T18:06:04;8.60;99.90
53208;DHT22;39093;52.788;6.940;2022-12-29T18:08:36;8.60;99.90
53208;DHT22;39093;52.788;6.940;2022-12-29T18:11:14;8.60;99.90
53208;DHT22;39093;52.788;6.940;2022-12-29T18:13:42;8.50;99.90
53208;DHT22;39093;52.788;6.940;2022-12-29T18:16:13;8.50;99.90
53208;DHT22;39093;52.788;6.940;2022-12-29T18:18:40;8.30;99.90
53208;DHT22;39093;52.788;6.940;2022-12-29T18:21:16;7.90;99.90
53208;DHT22;39093;52.788;6.940;2022-12-29T18:23:44;7.70;99.90
53208;DHT22;39093;52.788;6.940;2022-12-29T18:28:40;7.50;99.90
53208;DHT22;39093;52.788;6.940;2022-12-29T18:31:17;7.50;99.90
53208;DHT22;39093;52.788;6.940;2022-12-29T18:33:44;7.50;99.90
53208;DHT22;39093;52.788;6.940;2022-12-29T18:36:12;7.40;99.90
53208;DHT22;39093;52.788;6.940;2022-12-29T18:38:39;7.50;99.90
53208;DHT22;39093;52.788;6.940;2022-12-29T18:41:14;7.60;99.90
53208;DHT22;39093;52.788;6.940;2022-12-29T18:43:48;7.80;99.90
53208;DHT22;39093;52.788;6.940;2022-12-29T18:46:15;7.80;99.90
53208;DHT22;39093;52.788;6.940;2022-12-29T18:48:49;7.70;99.90